createdAt,value
2023-03-22T00:01:01.448Z,12.7
2023-03-22T00:03:31.465Z,12.6
2023-03-22T00:06:02.066Z,12.5
2023-03-22T00:08:33.046Z,12.6
2023-03-22T00:11:07.278Z,12.4
2023-03-22T00:13:37.359Z,12.3
2023-03-22T00:16:07.812Z,12.3
2023-03-22T00:18:40.447Z,12.4
2023-03-22T00:21:10.904Z,12.4
2023-03-22T00:23:42.424Z,12.3
2023-03-22T00:26:15.056Z,12.2
2023-03-22T00:28:45.590Z,12.1
2023-03-22T00:31:18.117Z,12.2
2023-03-22T00:33:48.408Z,12.3
2023-03-22T00:36:18.898Z,12.1
2023-03-22T00:38:53.437Z,12.1
2023-03-22T00:41:24.208Z,12.1
2023-03-22T00:43:56.614Z,12
2023-03-22T00:46:27.296Z,12
2023-03-22T00:48:57.985Z,12
2023-03-22T00:51:28.217Z,12.1
2023-03-22T00:53:58.977Z,12.2
2023-03-22T00:56:29.454Z,12.1
2023-03-22T00:59:01.991Z,12.2
2023-03-22T01:01:32.547Z,12.1
2023-03-22T01:04:03.378Z,11.9
2023-03-22T01:06:33.356Z,11.9
2023-03-22T01:09:04.468Z,11.9
2023-03-22T01:11:35.354Z,12
2023-03-22T01:14:04.243Z,11.9
2023-03-22T01:16:34.796Z,11.8
2023-03-22T01:19:06.102Z,11.7
2023-03-22T01:21:36.311Z,11.7
2023-03-22T01:24:07.098Z,11.7
2023-03-22T01:26:41.081Z,11.7
2023-03-22T01:29:12.263Z,11.8
2023-03-22T01:31:42.819Z,11.9
2023-03-22T01:34:13.117Z,11.8
2023-03-22T01:36:44.008Z,11.9
2023-03-22T01:39:21.218Z,12
2023-03-22T01:41:54.859Z,12
2023-03-22T01:44:25.667Z,12.1
2023-03-22T01:46:56.471Z,11.9
2023-03-22T01:49:27.138Z,11.8
2023-03-22T01:51:57.573Z,11.9
2023-03-22T01:54:28.727Z,11.9
2023-03-22T01:57:02.209Z,11.8
2023-03-22T01:59:34.521Z,11.8
2023-03-22T02:02:05.167Z,11.8
2023-03-22T02:04:35.643Z,11.8
2023-03-22T02:07:05.925Z,11.5
2023-03-22T02:09:36.877Z,11.3
2023-03-22T02:12:07.617Z,11.4
2023-03-22T02:14:39.393Z,11.5
2023-03-22T02:17:10.175Z,11.3
2023-03-22T02:19:43.557Z,11.4
2023-03-22T02:22:13.943Z,11.3
2023-03-22T02:24:45.149Z,11.3
2023-03-22T02:27:18.417Z,11.4
2023-03-22T02:29:49.115Z,11.2
2023-03-22T02:32:23.753Z,11.1
2023-03-22T02:34:54.449Z,11.1
2023-03-22T02:37:25.522Z,11.1
2023-03-22T02:39:55.789Z,10.9
2023-03-22T02:42:26.107Z,11
2023-03-22T02:44:56.957Z,11
2023-03-22T02:47:28.007Z,10.9
2023-03-22T02:49:58.866Z,10.8
2023-03-22T02:52:30.631Z,10.8
2023-03-22T02:55:05.177Z,10.7
2023-03-22T02:57:35.701Z,10.7
2023-03-22T03:00:06.520Z,10.8
2023-03-22T03:02:36.941Z,10.9
2023-03-22T03:05:07.187Z,10.8
2023-03-22T03:07:38.241Z,10.7
2023-03-22T03:10:09.606Z,10.5
2023-03-22T03:12:40.704Z,10.4
2023-03-22T03:15:14.152Z,10.5
2023-03-22T03:17:45.074Z,10.5
2023-03-22T03:20:14.480Z,10.4
2023-03-22T03:22:44.768Z,10.3
2023-03-22T03:25:20.424Z,10.4
2023-03-22T03:27:51.773Z,10.4
2023-03-22T03:30:22.325Z,10.4
2023-03-22T03:32:52.820Z,10.4
2023-03-22T03:35:24.051Z,10.2
2023-03-22T03:37:54.877Z,10.2
2023-03-22T03:40:26.196Z,10.1
2023-03-22T03:42:56.495Z,10.1
2023-03-22T03:45:27.128Z,10.1
2023-03-22T03:47:58.761Z,10.1
2023-03-22T03:50:29.209Z,10
2023-03-22T03:52:59.776Z,10.1
2023-03-22T03:55:31.335Z,10
2023-03-22T03:58:02.428Z,9.9
2023-03-22T04:00:42.516Z,9.9
2023-03-22T04:03:13.108Z,9.9
2023-03-22T04:05:43.603Z,9.7
2023-03-22T04:08:14.112Z,9.7
2023-03-22T04:10:44.373Z,9.6
2023-03-22T04:13:18.031Z,9.6
2023-03-22T04:15:48.886Z,9.5
2023-03-22T04:18:21.614Z,9.5
2023-03-22T04:20:54.584Z,9.6
2023-03-22T04:23:27.783Z,9.4
2023-03-22T04:25:58.139Z,9.3
2023-03-22T04:28:29.288Z,9.4
2023-03-22T04:31:00.227Z,9.2
2023-03-22T04:33:30.943Z,9.2
2023-03-22T04:36:04.142Z,9.1
2023-03-22T04:38:33.061Z,9.2
2023-03-22T04:41:05.121Z,9.1
2023-03-22T04:43:34.753Z,9.1
2023-03-22T04:46:06.078Z,9.1
2023-03-22T04:48:36.799Z,9.1
2023-03-22T04:51:07.542Z,9.1
2023-03-22T04:53:41.657Z,9
2023-03-22T04:56:11.973Z,9.1
2023-03-22T04:58:46.192Z,9.2
2023-03-22T05:01:17.214Z,9.3
2023-03-22T05:03:51.003Z,9.3
2023-03-22T05:06:21.511Z,9.5
2023-03-22T05:08:52.440Z,9.5
2023-03-22T05:11:32.216Z,9.6
2023-03-22T05:14:02.953Z,9.6
2023-03-22T05:16:34.180Z,9.5
2023-03-22T05:19:04.780Z,9.6
2023-03-22T05:21:35.135Z,9.6
2023-03-22T05:24:08.122Z,9.5
2023-03-22T05:26:40.081Z,9.5
2023-03-22T05:29:10.733Z,9.5
2023-03-22T05:31:41.286Z,9.6
2023-03-22T05:34:11.796Z,9.7
2023-03-22T05:36:42.315Z,9.7
2023-03-22T05:39:13.198Z,9.8
2023-03-22T05:41:45.880Z,9.9
2023-03-22T05:44:16.214Z,10
2023-03-22T05:46:46.918Z,10.2
2023-03-22T05:49:25.327Z,10.3
2023-03-22T05:51:58.057Z,10.4
2023-03-22T05:54:34.807Z,10.6
2023-03-22T05:57:09.980Z,10.6
2023-03-22T05:59:40.347Z,10.7
2023-03-22T06:02:10.818Z,10.6
2023-03-22T06:04:44.928Z,10.8
2023-03-22T06:07:18.612Z,10.9
2023-03-22T06:09:54.022Z,11.1
2023-03-22T06:12:23.397Z,11.2
2023-03-22T06:14:53.922Z,11.3
2023-03-22T06:17:24.247Z,11.4
2023-03-22T06:19:55.004Z,11.4
2023-03-22T06:22:32.092Z,11.5
2023-03-22T06:25:05.693Z,11.8
2023-03-22T06:27:36.776Z,12
2023-03-22T06:30:09.477Z,12.1
2023-03-22T06:32:40.994Z,12.3
2023-03-22T06:35:20.495Z,12.5
2023-03-22T06:37:51.208Z,12.6
2023-03-22T06:40:21.284Z,12.8
2023-03-22T06:42:52.314Z,13
2023-03-22T06:45:23.312Z,13.1
2023-03-22T06:47:54.968Z,13.4
2023-03-22T06:50:29.074Z,13.4
2023-03-22T06:53:09.335Z,13.6
2023-03-22T06:55:43.537Z,13.9
2023-03-22T06:58:14.422Z,14
2023-03-22T07:00:47.883Z,14.1
2023-03-22T07:03:20.156Z,14.2
2023-03-22T07:05:52.385Z,14.3
2023-03-22T07:08:23.578Z,14.4
2023-03-22T07:10:54.166Z,14.5
2023-03-22T07:13:24.961Z,14.6
2023-03-22T07:15:59.188Z,14.7
2023-03-22T07:18:33.504Z,14.8
2023-03-22T07:21:04.191Z,14.9
2023-03-22T07:23:34.492Z,15
2023-03-22T07:26:05.327Z,15.2
2023-03-22T07:28:36.543Z,15.2
2023-03-22T07:31:07.133Z,15.3
2023-03-22T07:33:38.606Z,15.4
2023-03-22T07:36:10.940Z,15.4
2023-03-22T07:38:41.478Z,15.4
2023-03-22T07:41:11.513Z,15.4
2023-03-22T07:43:53.322Z,15.5
2023-03-22T07:46:14.828Z,15.6
2023-03-22T07:48:45.401Z,15.8
2023-03-22T07:51:16.953Z,15.8
2023-03-22T07:53:48.734Z,15.9
2023-03-22T07:56:20.099Z,16
2023-03-22T07:58:51.048Z,16
2023-03-22T08:01:21.125Z,16.2
2023-03-22T08:03:51.533Z,16.3
2023-03-22T08:06:22.783Z,16.4
2023-03-22T08:08:51.898Z,16.5
2023-03-22T08:11:22.255Z,16.5
2023-03-22T08:13:52.626Z,16.6
2023-03-22T08:16:28.080Z,16.5
2023-03-22T08:18:58.538Z,16.6
2023-03-22T08:21:33.124Z,16.6
2023-03-22T08:24:03.375Z,16.8
2023-03-22T08:26:39.332Z,16.9
2023-03-22T08:29:12.532Z,17
2023-03-22T08:31:46.735Z,17.1
2023-03-22T08:34:17.087Z,17.2
2023-03-22T08:36:48.107Z,17.4
2023-03-22T08:39:19.021Z,17.5
2023-03-22T08:41:49.984Z,17.6
2023-03-22T08:44:21.278Z,17.7
2023-03-22T08:46:52.400Z,18
2023-03-22T08:49:23.294Z,18
2023-03-22T08:51:58.080Z,17.9
2023-03-22T08:54:30.182Z,17.9
2023-03-22T08:57:04.011Z,18.1
2023-03-22T08:59:36.173Z,18.3
2023-03-22T09:02:07.422Z,18.5
2023-03-22T09:04:39.900Z,18.6
2023-03-22T09:07:12.046Z,18.6
2023-03-22T09:09:43.034Z,18.7
2023-03-22T09:12:14.476Z,18.5
2023-03-22T09:14:45.419Z,18.2
2023-03-22T09:17:16.139Z,18.4
2023-03-22T09:19:47.407Z,18.4
2023-03-22T09:22:18.648Z,18.5
2023-03-22T09:24:51.805Z,18.5
2023-03-22T09:27:26.115Z,18.5
2023-03-22T09:29:56.767Z,18.6
2023-03-22T09:32:28.326Z,18.4
2023-03-22T09:34:59.491Z,18.5
2023-03-22T09:37:29.610Z,18.8
2023-03-22T09:40:00.280Z,18.7
2023-03-22T09:42:34.967Z,18.9
2023-03-22T09:45:07.058Z,19
2023-03-22T09:47:44.935Z,19.2
2023-03-22T09:50:12.617Z,19.4
2023-03-22T09:52:43.625Z,19.3
2023-03-22T09:55:14.489Z,19.5
2023-03-22T09:57:45.513Z,19.6
2023-03-22T10:00:17.094Z,19.9
2023-03-22T10:02:49.788Z,19.9
2023-03-22T10:05:25.168Z,19.8
2023-03-22T10:07:55.693Z,19.8
2023-03-22T10:10:26.071Z,19.9
2023-03-22T10:12:56.633Z,19.9
2023-03-22T10:15:28.468Z,20
2023-03-22T10:17:58.902Z,20.1
2023-03-22T10:20:31.716Z,19.9
2023-03-22T10:23:05.275Z,19.8
2023-03-22T10:25:35.627Z,19.7
2023-03-22T10:28:09.870Z,19.9
2023-03-22T10:30:44.594Z,19.8
2023-03-22T10:33:16.671Z,19.9
2023-03-22T10:35:47.655Z,20
2023-03-22T10:38:19.262Z,19.9
2023-03-22T10:40:49.853Z,20
2023-03-22T10:43:24.798Z,19.9
2023-03-22T10:45:57.339Z,20
2023-03-22T10:48:36.643Z,20
2023-03-22T10:51:09.643Z,20.2
2023-03-22T10:53:40.563Z,20.3
2023-03-22T10:56:11.299Z,20.3
2023-03-22T10:58:42.540Z,20.2
2023-03-22T11:01:14.792Z,20.1
2023-03-22T11:03:44.991Z,20
2023-03-22T11:06:16.895Z,20.2
2023-03-22T11:08:47.985Z,20.2
2023-03-22T11:11:18.750Z,20.2
2023-03-22T11:16:53.358Z,20.4
2023-03-22T11:19:27.446Z,20.5
2023-03-22T11:22:01.044Z,20.6
2023-03-22T11:24:32.015Z,20.7
2023-03-22T11:27:02.821Z,20.7
2023-03-22T11:29:33.467Z,20.8
2023-03-22T11:32:07.173Z,20.8
2023-03-22T11:34:38.722Z,20.8
2023-03-22T11:37:09.704Z,20.5
2023-03-22T11:39:41.046Z,20.5
2023-03-22T11:42:12.348Z,20.5
2023-03-22T11:44:42.725Z,20.3
2023-03-22T11:47:14.782Z,20.1
2023-03-22T11:49:45.585Z,20
2023-03-22T11:52:15.922Z,20
2023-03-22T11:54:46.084Z,19.9
2023-03-22T11:57:16.656Z,20
2023-03-22T11:59:47.440Z,19.9
2023-03-22T12:02:18.152Z,20
2023-03-22T12:04:48.913Z,19.8
2023-03-22T12:07:19.067Z,19.8
2023-03-22T12:09:49.646Z,19.8
2023-03-22T12:12:20.086Z,19.7
2023-03-22T12:14:50.399Z,19.9
2023-03-22T12:17:20.625Z,20
2023-03-22T12:19:50.870Z,20
2023-03-22T12:22:22.387Z,20.2
2023-03-22T12:24:53.132Z,20.5
2023-03-22T12:27:23.403Z,20.6
2023-03-22T12:29:54.165Z,20.5
2023-03-22T12:32:26.182Z,20.6
2023-03-22T12:35:05.373Z,20.8
2023-03-22T12:37:25.903Z,20.9
2023-03-22T12:39:59.557Z,21
2023-03-22T12:42:30.772Z,21.1
2023-03-22T12:45:05.687Z,21.1
2023-03-22T12:47:41.457Z,21.3
2023-03-22T12:50:21.180Z,21.4
2023-03-22T12:52:50.333Z,21.4
2023-03-22T12:55:21.533Z,21.2
2023-03-22T12:57:55.214Z,21.2
2023-03-22T13:00:26.383Z,21.3
2023-03-22T13:02:56.583Z,21.6
2023-03-22T13:05:28.989Z,21.8
2023-03-22T13:07:59.341Z,21.8
2023-03-22T13:10:29.472Z,22
2023-03-22T13:12:59.995Z,22.2
2023-03-22T13:15:41.138Z,22.2
2023-03-22T13:18:01.987Z,22.5
2023-03-22T13:20:32.624Z,22.5
2023-03-22T13:23:03.464Z,22.7
2023-03-22T13:25:34.636Z,22.9
2023-03-22T13:28:05.541Z,23
2023-03-22T13:30:36.197Z,23
2023-03-22T13:33:06.700Z,23.3
2023-03-22T13:35:37.032Z,23.3
2023-03-22T13:38:07.838Z,22.9
2023-03-22T13:43:40.913Z,23.2
2023-03-22T13:46:10.428Z,23.1
2023-03-22T13:48:44.300Z,23.1
2023-03-22T13:51:14.678Z,23.2
2023-03-22T13:53:45.732Z,23.1
2023-03-22T13:56:16.460Z,22.9
2023-03-22T13:58:47.062Z,22.9
2023-03-22T14:01:17.448Z,22.8
2023-03-22T14:03:48.003Z,22.9
2023-03-22T14:06:18.740Z,23
2023-03-22T14:08:49.534Z,23
2023-03-22T14:11:20.482Z,22.9
2023-03-22T14:13:51.044Z,23
2023-03-22T14:16:21.540Z,22.9
2023-03-22T14:18:51.345Z,22.7
2023-03-22T14:21:22.332Z,22.8
2023-03-22T14:46:54.068Z,21.4
2023-03-22T14:49:25.392Z,21.2
2023-03-22T14:51:56.993Z,21.3
2023-03-22T14:54:27.107Z,21
2023-03-22T14:56:58.152Z,21.1
2023-03-22T14:59:29.151Z,21
2023-03-22T15:02:05.005Z,21
2023-03-22T15:04:35.927Z,20.9
2023-03-22T15:07:04.543Z,20.9
2023-03-22T15:09:34.614Z,20.9
2023-03-22T15:12:05.087Z,20.8
2023-03-22T15:14:36.647Z,20.7
2023-03-22T15:17:13.467Z,20.8
2023-03-22T15:19:42.804Z,20.8
2023-03-22T15:22:13.608Z,20.7
2023-03-22T15:24:44.485Z,20.6
2023-03-22T15:27:14.622Z,20.4
2023-03-22T15:29:45.400Z,20.4
2023-03-22T15:32:16.723Z,20.3
2023-03-22T15:34:47.060Z,20.3
2023-03-22T15:37:18.101Z,20.3
2023-03-22T15:39:48.308Z,20.1
2023-03-22T15:42:19.488Z,20.1
2023-03-22T15:44:50.127Z,20
2023-03-22T15:47:20.985Z,20
2023-03-22T15:49:51.653Z,19.9
2023-03-22T15:52:29.994Z,19.8
2023-03-22T15:55:00.878Z,19.9
2023-03-22T15:57:34.235Z,19.7
2023-03-22T16:00:05.553Z,19.7
2023-03-22T16:02:35.794Z,19.6
2023-03-22T16:05:06.342Z,19.6
2023-03-22T16:07:37.285Z,19.5
2023-03-22T16:10:07.668Z,19.5
2023-03-22T16:12:38.038Z,19.4
2023-03-22T16:15:11.020Z,19.3
2023-03-22T16:17:41.570Z,19.4
2023-03-22T16:20:12.551Z,19.3
2023-03-22T16:22:43.179Z,19.1
2023-03-22T16:25:17.390Z,19
2023-03-22T16:27:47.517Z,18.9
2023-03-22T16:30:19.067Z,19
2023-03-22T16:32:49.941Z,19
2023-03-22T16:35:20.936Z,18.8
2023-03-22T16:37:51.865Z,18.8
2023-03-22T16:40:23.314Z,18.8
2023-03-22T16:43:04.305Z,18.8
2023-03-22T16:45:43.722Z,18.9
2023-03-22T16:48:19.142Z,18.9
2023-03-22T16:50:55.856Z,18.8
2023-03-22T16:53:30.350Z,18.7
2023-03-22T16:55:58.027Z,18.6
2023-03-22T16:58:28.665Z,18.6
2023-03-22T17:01:03.958Z,18.6
2023-03-22T17:03:35.591Z,18.5
2023-03-22T17:06:08.316Z,18.5
2023-03-22T17:08:42.962Z,18.5
2023-03-22T17:11:12.052Z,18.4
2023-03-22T17:13:43.890Z,18.4
2023-03-22T17:16:14.429Z,18.4
2023-03-22T17:18:48.827Z,18.3
2023-03-22T17:21:20.932Z,18.3
2023-03-22T17:23:52.911Z,18.3
2023-03-22T17:26:34.215Z,18.2
2023-03-22T17:29:07.681Z,18.2
2023-03-22T17:31:38.386Z,18.1
2023-03-22T17:34:14.728Z,18
2023-03-22T17:36:45.917Z,18
2023-03-22T17:39:36.049Z,17.9
2023-03-22T17:41:52.388Z,17.9
2023-03-22T17:44:25.739Z,17.9
2023-03-22T17:49:35.409Z,17.9
2023-03-22T17:52:08.405Z,17.8
2023-03-22T17:59:46.724Z,17.7
2023-03-22T18:02:25.578Z,17.5
2023-03-22T18:04:48.346Z,17.5
2023-03-22T18:07:19.324Z,17.4
2023-03-22T18:09:51.984Z,17.4
2023-03-22T18:15:02.020Z,17.2
2023-03-22T18:17:33.718Z,17.1
2023-03-22T18:20:14.762Z,17.1
2023-03-22T18:22:37.094Z,17
2023-03-22T18:25:07.429Z,17
2023-03-22T18:27:45.987Z,16.9
2023-03-22T18:30:08.192Z,16.8
2023-03-22T18:32:55.167Z,16.8
2023-03-22T18:35:18.679Z,16.8
2023-03-22T18:37:49.803Z,16.7
2023-03-22T18:40:54.354Z,16.7
2023-03-22T18:42:53.838Z,16.6
2023-03-22T18:45:32.464Z,16.5
2023-03-22T18:47:59.256Z,16.4
2023-03-22T18:50:29.790Z,16.4
2023-03-22T18:53:16.169Z,16.3
2023-03-22T18:58:00.240Z,16.2
2023-03-22T19:00:31.139Z,16.1
2023-03-22T19:03:01.474Z,16
2023-03-22T19:05:30.608Z,16
2023-03-22T19:10:31.592Z,15.9
2023-03-22T19:13:02.736Z,15.9
2023-03-22T19:15:44.300Z,15.8
2023-03-22T19:18:02.715Z,15.7
2023-03-22T19:20:39.924Z,15.7
2023-03-22T19:23:04.302Z,15.7
2023-03-22T19:25:34.185Z,15.6
2023-03-22T19:28:04.220Z,15.5
2023-03-22T19:30:32.468Z,15.4
2023-03-22T19:33:27.477Z,15.4
2023-03-22T19:35:33.685Z,15.3
2023-03-22T19:38:03.504Z,15.2
2023-03-22T19:41:24.030Z,15.2
2023-03-22T19:43:06.087Z,15.1
2023-03-22T19:45:36.563Z,15
2023-03-22T19:48:07.550Z,15
2023-03-22T19:50:38.729Z,15
2023-03-22T19:53:31.601Z,14.9
2023-03-22T19:55:39.358Z,14.8
2023-03-22T19:58:09.585Z,14.8
2023-03-22T20:00:45.658Z,14.7
2023-03-22T20:03:10.013Z,14.6
2023-03-22T20:05:47.904Z,14.6
2023-03-22T20:08:11.441Z,14.6
2023-03-22T20:10:40.858Z,14.5
2023-03-22T20:13:10.970Z,14.5
2023-03-22T20:15:43.409Z,14.3
2023-03-22T20:18:14.295Z,14.3
2023-03-22T20:20:46.087Z,14.3
2023-03-22T20:23:25.408Z,14.3
2023-03-22T20:25:55.057Z,14.2
2023-03-22T20:28:25.163Z,14.2
2023-03-22T20:30:55.480Z,14.2
2023-03-22T20:33:26.788Z,14.2
2023-03-22T20:35:56.719Z,14.1
2023-03-22T20:38:26.814Z,14.1
2023-03-22T20:40:56.723Z,14.1
2023-03-22T20:43:27.105Z,14.1
2023-03-22T20:45:56.987Z,13.9
2023-03-22T20:48:26.981Z,13.9
2023-03-22T20:50:56.756Z,13.8
2023-03-22T20:53:28.001Z,13.8
2023-03-22T20:55:58.241Z,13.7
2023-03-22T20:58:28.741Z,13.7
2023-03-22T21:00:58.825Z,13.7
2023-03-22T21:03:28.996Z,13.7
2023-03-22T21:05:59.097Z,13.6
2023-03-22T21:08:29.768Z,13.6
2023-03-22T21:10:59.439Z,13.5
2023-03-22T21:13:30.449Z,13.4
2023-03-22T21:16:00.746Z,13.4
2023-03-22T21:18:30.709Z,13.3
2023-03-22T21:21:00.400Z,13.2
2023-03-22T21:23:30.259Z,13
2023-03-22T21:26:00.515Z,13
2023-03-22T21:28:30.646Z,13
2023-03-22T21:31:04.835Z,13
2023-03-22T21:33:35.005Z,12.9
2023-03-22T21:36:05.398Z,12.8
2023-03-22T21:38:35.471Z,12.8
2023-03-22T21:41:09.007Z,12.8
2023-03-22T21:43:39.782Z,12.7
2023-03-22T21:46:10.436Z,12.7
2023-03-22T21:48:40.331Z,12.7
2023-03-22T21:51:14.439Z,12.6
2023-03-22T21:53:44.116Z,12.6
2023-03-22T21:56:14.137Z,12.6
2023-03-22T21:58:43.981Z,12.5
2023-03-22T22:01:15.765Z,12.4
2023-03-22T22:03:45.643Z,12.4
2023-03-22T22:06:16.247Z,12.4
2023-03-22T22:08:50.473Z,12.3
2023-03-22T22:11:20.995Z,12.3
2023-03-22T22:13:52.286Z,12.3
2023-03-22T22:16:23.811Z,12.2
2023-03-22T22:18:54.258Z,12.2
2023-03-22T22:21:24.398Z,12.2
2023-03-22T22:23:54.853Z,12.1
2023-03-22T22:26:25.899Z,12.1
2023-03-22T22:28:55.796Z,12.1
2023-03-22T22:31:25.991Z,12.1
2023-03-22T22:33:56.246Z,12
2023-03-22T22:36:26.426Z,12
2023-03-22T22:38:56.335Z,11.9
2023-03-22T22:41:26.629Z,11.9
2023-03-22T22:43:57.830Z,11.9
2023-03-22T22:46:28.472Z,11.9
2023-03-22T22:48:57.971Z,11.8
2023-03-22T22:51:27.929Z,11.8
2023-03-22T22:53:58.237Z,11.8
2023-03-22T22:56:32.650Z,11.7
2023-03-22T22:59:11.603Z,11.7
2023-03-22T23:01:40.147Z,11.6
2023-03-22T23:04:10.202Z,11.6
2023-03-22T23:06:48.436Z,11.5
2023-03-22T23:09:22.508Z,11.5
2023-03-22T23:11:58.505Z,11.5
2023-03-22T23:14:28.389Z,11.4
2023-03-22T23:16:58.313Z,11.5
2023-03-22T23:19:27.356Z,11.3
2023-03-22T23:21:57.243Z,11.3
2023-03-22T23:24:28.608Z,11.3
2023-03-22T23:26:58.811Z,11.3
2023-03-22T23:29:31.144Z,11.3
2023-03-22T23:32:05.551Z,11.2
2023-03-22T23:34:35.659Z,11.2
2023-03-22T23:37:06.048Z,11.2
2023-03-22T23:39:38.030Z,11.1
2023-03-22T23:42:12.309Z,11.1
2023-03-22T23:44:42.532Z,11.1
2023-03-22T23:47:17.107Z,11
2023-03-22T23:49:48.540Z,11
2023-03-22T23:52:18.948Z,10.9
2023-03-22T23:54:50.170Z,10.9
2023-03-22T23:57:20.420Z,10.9
2023-03-22T23:59:50.738Z,10.9
